sensor_id;sensor_type;location;lat;lon;timestamp;pressure;altitude;pressure_sealevel;temperature;humidity
52625;BME280;38519;52.540;13.410;2023-03-01T00:00:49;102404.91;;;-1.27;100.00
52625;BME280;38519;52.540;13.410;2023-03-01T00:03:15;102403.53;;;-1.31;100.00
52625;BME280;38519;52.540;13.410;2023-03-01T00:05:44;102404.03;;;-1.33;100.00
52625;BME280;38519;52.540;13.410;2023-03-01T00:08:09;102401.72;;;-1.32;100.00
52625;BME280;38519;52.540;13.410;2023-03-01T00:10:34;102389.16;;;-1.41;100.00
52625;BME280;38519;52.540;13.410;2023-03-01T00:13:00;102391.97;;;-1.45;100.00
52625;BME280;38519;52.540;13.410;2023-03-01T00:15:25;102397.56;;;-1.48;100.00
52625;BME280;38519;52.540;13.410;2023-03-01T00:17:50;102384.28;;;-1.45;100.00
52625;BME280;38519;52.540;13.410;2023-03-01T00:20:15;102386.13;;;-1.44;100.00
52625;BME280;38519;52.540;13.410;2023-03-01T00:22:41;102387.56;;;-1.47;100.00
52625;BME280;38519;52.540;13.410;2023-03-01T00:25:07;102379.63;;;-1.48;100.00
52625;BME280;38519;52.540;13.410;2023-03-01T00:27:32;102369.88;;;-1.51;100.00
52625;BME280;38519;52.540;13.410;2023-03-01T00:29:58;102375.25;;;-1.49;100.00
52625;BME280;38519;52.540;13.410;2023-03-01T00:32:23;102375.25;;;-1.49;100.00
52625;BME280;38519;52.540;13.410;2023-03-01T00:34:49;102373.84;;;-1.53;100.00
52625;BME280;38519;52.540;13.410;2023-03-01T00:37:22;102376.38;;;-1.47;100.00
52625;BME280;38519;52.540;13.410;2023-03-01T00:39:47;102385.94;;;-1.52;100.00
52625;BME280;38519;52.540;13.410;2023-03-01T00:42:13;102381.78;;;-1.57;100.00
52625;BME280;38519;52.540;13.410;2023-03-01T00:44:38;102375.97;;;-1.61;100.00
52625;BME280;38519;52.540;13.410;2023-03-01T00:47:03;102368.75;;;-1.58;100.00
52625;BME280;38519;52.540;13.410;2023-03-01T00:49:29;102371.31;;;-1.58;100.00
52625;BME280;38519;52.540;13.410;2023-03-01T00:51:54;102370.88;;;-1.67;100.00
52625;BME280;38519;52.540;13.410;2023-03-01T00:54:19;102385.78;;;-1.70;100.00
52625;BME280;38519;52.540;13.410;2023-03-01T00:56:44;102383.25;;;-1.76;100.00
52625;BME280;38519;52.540;13.410;2023-03-01T00:59:10;102375.13;;;-1.79;100.00
52625;BME280;38519;52.540;13.410;2023-03-01T01:01:35;102362.31;;;-1.79;100.00
52625;BME280;38519;52.540;13.410;2023-03-01T01:04:05;102355.81;;;-1.83;100.00
52625;BME280;38519;52.540;13.410;2023-03-01T01:06:38;102360.72;;;-1.90;100.00
52625;BME280;38519;52.540;13.410;2023-03-01T01:09:04;102359.09;;;-1.89;100.00
52625;BME280;38519;52.540;13.410;2023-03-01T01:11:30;102363.50;;;-1.88;100.00
52625;BME280;38519;52.540;13.410;2023-03-01T01:13:56;102353.75;;;-1.91;100.00
52625;BME280;38519;52.540;13.410;2023-03-01T01:16:22;102348.38;;;-1.81;100.00
52625;BME280;38519;52.540;13.410;2023-03-01T01:18:48;102346.66;;;-1.63;100.00
52625;BME280;38519;52.540;13.410;2023-03-01T01:21:16;102349.22;;;-1.69;100.00
52625;BME280;38519;52.540;13.410;2023-03-01T01:23:42;102345.94;;;-1.57;100.00
52625;BME280;38519;52.540;13.410;2023-03-01T01:26:09;102347.59;;;-1.69;100.00
52625;BME280;38519;52.540;13.410;2023-03-01T01:28:34;102339.97;;;-1.80;100.00
52625;BME280;38519;52.540;13.410;2023-03-01T01:31:00;102336.75;;;-1.85;100.00
52625;BME280;38519;52.540;13.410;2023-03-01T01:33:26;102328.63;;;-1.88;100.00
52625;BME280;38519;52.540;13.410;2023-03-01T01:35:51;102316.50;;;-1.94;100.00
52625;BME280;38519;52.540;13.410;2023-03-01T01:38:17;102311.44;;;-2.00;100.00
52625;BME280;38519;52.540;13.410;2023-03-01T01:40:43;102307.47;;;-1.98;100.00
52625;BME280;38519;52.540;13.410;2023-03-01T01:43:13;102315.13;;;-1.92;100.00
52625;BME280;38519;52.540;13.410;2023-03-01T01:45:41;102311.59;;;-1.87;100.00
52625;BME280;38519;52.540;13.410;2023-03-01T01:48:07;102312.81;;;-1.96;100.00
52625;BME280;38519;52.540;13.410;2023-03-01T01:50:35;102316.09;;;-1.97;100.00
52625;BME280;38519;52.540;13.410;2023-03-01T01:53:05;102319.34;;;-2.04;100.00
52625;BME280;38519;52.540;13.410;2023-03-01T01:55:31;102312.38;;;-2.05;100.00
52625;BME280;38519;52.540;13.410;2023-03-01T01:57:58;102309.84;;;-2.11;100.00
52625;BME280;38519;52.540;13.410;2023-03-01T02:00:27;102311.03;;;-2.14;100.00
52625;BME280;38519;52.540;13.410;2023-03-01T02:02:59;102323.59;;;-2.22;100.00
52625;BME280;38519;52.540;13.410;2023-03-01T02:08:10;102323.34;;;-2.23;100.00
52625;BME280;38519;52.540;13.410;2023-03-01T02:10:36;102327.06;;;-2.15;100.00
52625;BME280;38519;52.540;13.410;2023-03-01T02:13:02;102330.06;;;-2.12;100.00
52625;BME280;38519;52.540;13.410;2023-03-01T02:15:31;102330.56;;;-2.15;100.00
52625;BME280;38519;52.540;13.410;2023-03-01T02:17:57;102328.69;;;-2.22;100.00
52625;BME280;38519;52.540;13.410;2023-03-01T02:20:27;102329.88;;;-2.20;100.00
52625;BME280;38519;52.540;13.410;2023-03-01T02:22:55;102339.16;;;-2.20;100.00
52625;BME280;38519;52.540;13.410;2023-03-01T02:27:50;102341.28;;;-2.12;100.00
52625;BME280;38519;52.540;13.410;2023-03-01T02:30:18;102331.69;;;-2.02;100.00
52625;BME280;38519;52.540;13.410;2023-03-01T02:32:45;102328.66;;;-1.99;100.00
52625;BME280;38519;52.540;13.410;2023-03-01T02:35:12;102329.34;;;-2.00;100.00
52625;BME280;38519;52.540;13.410;2023-03-01T02:37:38;102333.56;;;-2.00;100.00
52625;BME280;38519;52.540;13.410;2023-03-01T02:40:05;102334.00;;;-2.03;100.00
52625;BME280;38519;52.540;13.410;2023-03-01T02:42:36;102331.94;;;-2.11;100.00
52625;BME280;38519;52.540;13.410;2023-03-01T02:45:05;102337.06;;;-2.17;100.00
52625;BME280;38519;52.540;13.410;2023-03-01T02:47:30;102326.59;;;-2.18;100.00
52625;BME280;38519;52.540;13.410;2023-03-01T02:49:56;102325.69;;;-2.19;100.00
52625;BME280;38519;52.540;13.410;2023-03-01T02:52:36;102323.53;;;-2.10;100.00
52625;BME280;38519;52.540;13.410;2023-03-01T02:55:15;102318.00;;;-2.13;100.00
52625;BME280;38519;52.540;13.410;2023-03-01T02:57:42;102312.44;;;-2.16;100.00
52625;BME280;38519;52.540;13.410;2023-03-01T03:00:11;102302.41;;;-2.21;100.00
52625;BME280;38519;52.540;13.410;2023-03-01T03:02:44;102301.72;;;-2.20;100.00
52625;BME280;38519;52.540;13.410;2023-03-01T03:05:13;102307.09;;;-2.18;100.00
52625;BME280;38519;52.540;13.410;2023-03-01T03:07:39;102309.16;;;-2.15;100.00
52625;BME280;38519;52.540;13.410;2023-03-01T03:10:07;102303.34;;;-2.20;100.00
52625;BME280;38519;52.540;13.410;2023-03-01T03:12:32;102300.56;;;-2.22;100.00
52625;BME280;38519;52.540;13.410;2023-03-01T03:14:57;102302.88;;;-2.23;100.00
52625;BME280;38519;52.540;13.410;2023-03-01T03:17:23;102302.41;;;-2.15;100.00
52625;BME280;38519;52.540;13.410;2023-03-01T03:19:48;102303.56;;;-2.18;100.00
52625;BME280;38519;52.540;13.410;2023-03-01T03:22:13;102302.41;;;-2.21;100.00
52625;BME280;38519;52.540;13.410;2023-03-01T03:24:39;102297.34;;;-2.32;100.00
52625;BME280;38519;52.540;13.410;2023-03-01T03:27:04;102300.34;;;-2.29;100.00
52625;BME280;38519;52.540;13.410;2023-03-01T03:29:30;102300.59;;;-2.33;100.00
52625;BME280;38519;52.540;13.410;2023-03-01T03:31:55;102292.22;;;-2.26;100.00
52625;BME280;38519;52.540;13.410;2023-03-01T03:34:20;102292.19;;;-2.21;100.00
52625;BME280;38519;52.540;13.410;2023-03-01T03:36:46;102287.97;;;-2.14;100.00
52625;BME280;38519;52.540;13.410;2023-03-01T03:39:11;102282.88;;;-2.14;100.00
52625;BME280;38519;52.540;13.410;2023-03-01T03:41:36;102282.19;;;-2.19;100.00
52625;BME280;38519;52.540;13.410;2023-03-01T03:44:02;102278.03;;;-2.24;100.00
52625;BME280;38519;52.540;13.410;2023-03-01T03:46:27;102277.09;;;-2.25;100.00
52625;BME280;38519;52.540;13.410;2023-03-01T03:48:52;102273.13;;;-2.28;100.00
52625;BME280;38519;52.540;13.410;2023-03-01T03:51:18;102271.75;;;-2.32;100.00
52625;BME280;38519;52.540;13.410;2023-03-01T03:53:43;102275.00;;;-2.33;100.00
52625;BME280;38519;52.540;13.410;2023-03-01T03:56:08;102267.56;;;-2.26;100.00
52625;BME280;38519;52.540;13.410;2023-03-01T03:58:35;102265.25;;;-2.35;100.00
52625;BME280;38519;52.540;13.410;2023-03-01T04:01:00;102268.53;;;-2.42;100.00
52625;BME280;38519;52.540;13.410;2023-03-01T04:03:26;102266.91;;;-2.47;100.00
52625;BME280;38519;52.540;13.410;2023-03-01T04:05:52;102257.63;;;-2.47;100.00
52625;BME280;38519;52.540;13.410;2023-03-01T04:08:22;102269.69;;;-2.46;100.00
52625;BME280;38519;52.540;13.410;2023-03-01T04:10:52;102266.22;;;-2.46;100.00
52625;BME280;38519;52.540;13.410;2023-03-01T04:13:19;102266.00;;;-2.42;100.00
52625;BME280;38519;52.540;13.410;2023-03-01T04:15:45;102264.78;;;-2.27;100.00
52625;BME280;38519;52.540;13.410;2023-03-01T04:18:14;102264.78;;;-2.33;100.00
52625;BME280;38519;52.540;13.410;2023-03-01T04:20:40;102273.16;;;-2.34;100.00
52625;BME280;38519;52.540;13.410;2023-03-01T04:23:15;102272.25;;;-2.40;100.00
52625;BME280;38519;52.540;13.410;2023-03-01T04:25:57;102269.91;;;-2.39;100.00
52625;BME280;38519;52.540;13.410;2023-03-01T04:28:27;102267.81;;;-2.41;100.00
52625;BME280;38519;52.540;13.410;2023-03-01T04:30:53;102265.25;;;-2.41;100.00
52625;BME280;38519;52.540;13.410;2023-03-01T04:33:19;102268.06;;;-2.40;100.00
52625;BME280;38519;52.540;13.410;2023-03-01T04:35:44;102260.59;;;-2.38;100.00
52625;BME280;38519;52.540;13.410;2023-03-01T04:38:09;102267.13;;;-2.46;100.00
52625;BME280;38519;52.540;13.410;2023-03-01T04:40:35;102264.84;;;-2.50;100.00
52625;BME280;38519;52.540;13.410;2023-03-01T04:43:01;102271.81;;;-2.54;100.00
52625;BME280;38519;52.540;13.410;2023-03-01T04:45:27;102265.31;;;-2.47;100.00
52625;BME280;38519;52.540;13.410;2023-03-01T04:47:52;102265.53;;;-2.45;100.00
52625;BME280;38519;52.540;13.410;2023-03-01T04:50:18;102260.19;;;-2.52;100.00
52625;BME280;38519;52.540;13.410;2023-03-01T04:52:48;102264.34;;;-2.47;100.00
52625;BME280;38519;52.540;13.410;2023-03-01T04:55:14;102266.91;;;-2.42;100.00
52625;BME280;38519;52.540;13.410;2023-03-01T04:57:39;102259.69;;;-2.44;100.00
52625;BME280;38519;52.540;13.410;2023-03-01T05:00:06;102258.81;;;-2.50;100.00
52625;BME280;38519;52.540;13.410;2023-03-01T05:02:45;102255.56;;;-2.55;100.00
52625;BME280;38519;52.540;13.410;2023-03-01T05:05:10;102264.16;;;-2.54;100.00
52625;BME280;38519;52.540;13.410;2023-03-01T05:07:35;102259.22;;;-2.47;100.00
52625;BME280;38519;52.540;13.410;2023-03-01T05:10:00;102260.19;;;-2.52;100.00
52625;BME280;38519;52.540;13.410;2023-03-01T05:12:26;102255.53;;;-2.49;100.00
52625;BME280;38519;52.540;13.410;2023-03-01T05:14:51;102256.97;;;-2.63;100.00
52625;BME280;38519;52.540;13.410;2023-03-01T05:17:16;102261.16;;;-2.69;100.00
52625;BME280;38519;52.540;13.410;2023-03-01T05:19:41;102253.50;;;-2.69;100.00
52625;BME280;38519;52.540;13.410;2023-03-01T05:22:07;102250.47;;;-2.72;100.00
52625;BME280;38519;52.540;13.410;2023-03-01T05:24:33;102257.44;;;-2.60;100.00
52625;BME280;38519;52.540;13.410;2023-03-01T05:26:59;102250.25;;;-2.68;100.00
52625;BME280;38519;52.540;13.410;2023-03-01T05:29:25;102249.06;;;-2.70;100.00
52625;BME280;38519;52.540;13.410;2023-03-01T05:31:54;102247.00;;;-2.72;100.00
52625;BME280;38519;52.540;13.410;2023-03-01T05:34:31;102248.41;;;-2.80;100.00
52625;BME280;38519;52.540;13.410;2023-03-01T05:36:56;102248.41;;;-2.80;100.00
52625;BME280;38519;52.540;13.410;2023-03-01T05:39:22;102248.13;;;-2.59;100.00
52625;BME280;38519;52.540;13.410;2023-03-01T05:41:48;102251.81;;;-2.57;100.00
52625;BME280;38519;52.540;13.410;2023-03-01T05:44:16;102249.06;;;-2.64;100.00
52625;BME280;38519;52.540;13.410;2023-03-01T05:46:42;102245.81;;;-2.69;100.00
52625;BME280;38519;52.540;13.410;2023-03-01T05:49:07;102243.03;;;-2.70;100.00
52625;BME280;38519;52.540;13.410;2023-03-01T05:51:32;102239.53;;;-2.65;100.00
52625;BME280;38519;52.540;13.410;2023-03-01T05:53:59;102245.59;;;-2.70;100.00
52625;BME280;38519;52.540;13.410;2023-03-01T05:56:24;102243.50;;;-2.73;100.00
52625;BME280;38519;52.540;13.410;2023-03-01T05:58:49;102249.53;;;-2.78;100.00
52625;BME280;38519;52.540;13.410;2023-03-01T06:01:14;102248.41;;;-2.80;100.00
52625;BME280;38519;52.540;13.410;2023-03-01T06:03:40;102246.75;;;-2.80;100.00
52625;BME280;38519;52.540;13.410;2023-03-01T06:06:05;102247.22;;;-2.71;100.00
52625;BME280;38519;52.540;13.410;2023-03-01T06:08:30;102248.16;;;-2.65;100.00
52625;BME280;38519;52.540;13.410;2023-03-01T06:10:55;102253.50;;;-2.63;100.00
52625;BME280;38519;52.540;13.410;2023-03-01T06:13:21;102250.47;;;-2.66;100.00
52625;BME280;38519;52.540;13.410;2023-03-01T06:15:47;102254.63;;;-2.67;100.00
52625;BME280;38519;52.540;13.410;2023-03-01T06:18:13;102248.84;;;-2.66;100.00
52625;BME280;38519;52.540;13.410;2023-03-01T06:20:38;102243.03;;;-2.65;100.00
52625;BME280;38519;52.540;13.410;2023-03-01T06:23:03;102246.03;;;-2.56;100.00
52625;BME280;38519;52.540;13.410;2023-03-01T06:25:29;102246.25;;;-2.54;100.00
52625;BME280;38519;52.540;13.410;2023-03-01T06:27:54;102251.13;;;-2.50;100.00
52625;BME280;38519;52.540;13.410;2023-03-01T06:30:20;102247.63;;;-2.45;100.00
52625;BME280;38519;52.540;13.410;2023-03-01T06:32:45;102249.94;;;-2.47;100.00
52625;BME280;38519;52.540;13.410;2023-03-01T06:35:11;102260.19;;;-2.47;100.00
52625;BME280;38519;52.540;13.410;2023-03-01T06:37:38;102256.94;;;-2.51;100.00
52625;BME280;38519;52.540;13.410;2023-03-01T06:40:04;102264.38;;;-2.53;100.00
52625;BME280;38519;52.540;13.410;2023-03-01T06:42:33;102261.38;;;-2.50;100.00
52625;BME280;38519;52.540;13.410;2023-03-01T06:44:59;102261.78;;;-2.42;100.00
52625;BME280;38519;52.540;13.410;2023-03-01T06:47:24;102265.06;;;-2.48;100.00
52625;BME280;38519;52.540;13.410;2023-03-01T06:49:49;102262.97;;;-2.45;100.00
52625;BME280;38519;52.540;13.410;2023-03-01T06:52:14;102262.03;;;-2.40;100.00
52625;BME280;38519;52.540;13.410;2023-03-01T06:54:40;102263.63;;;-2.35;100.00
52625;BME280;38519;52.540;13.410;2023-03-01T06:57:05;102267.09;;;-2.29;100.00
52625;BME280;38519;52.540;13.410;2023-03-01T06:59:30;102256.88;;;-2.29;100.00
52625;BME280;38519;52.540;13.410;2023-03-01T07:01:56;102256.81;;;-2.17;100.00
52625;BME280;38519;52.540;13.410;2023-03-01T07:04:21;102260.50;;;-2.10;100.00
52625;BME280;38519;52.540;13.410;2023-03-01T07:06:46;102271.66;;;-2.04;100.00
52625;BME280;38519;52.540;13.410;2023-03-01T07:09:19;102274.00;;;-2.05;100.00
52625;BME280;38519;52.540;13.410;2023-03-01T07:11:46;102276.00;;;-1.91;100.00
52625;BME280;38519;52.540;13.410;2023-03-01T07:14:11;102280.63;;;-1.83;100.00
52625;BME280;38519;52.540;13.410;2023-03-01T07:16:37;102273.88;;;-1.83;100.00
52625;BME280;38519;52.540;13.410;2023-03-01T07:19:02;102275.50;;;-1.83;100.00
52625;BME280;38519;52.540;13.410;2023-03-01T07:21:28;102273.38;;;-1.80;100.00
52625;BME280;38519;52.540;13.410;2023-03-01T07:23:53;102274.78;;;-1.76;100.00
52625;BME280;38519;52.540;13.410;2023-03-01T07:26:19;102273.09;;;-1.70;100.00
52625;BME280;38519;52.540;13.410;2023-03-01T07:28:44;102274.50;;;-1.67;100.00
52625;BME280;38519;52.540;13.410;2023-03-01T07:31:09;102275.41;;;-1.66;100.00
52625;BME280;38519;52.540;13.410;2023-03-01T07:33:35;102271.56;;;-1.45;100.00
52625;BME280;38519;52.540;13.410;2023-03-01T07:36:01;102272.50;;;-1.15;100.00
52625;BME280;38519;52.540;13.410;2023-03-01T07:38:26;102280.88;;;-1.11;100.00
52625;BME280;38519;52.540;13.410;2023-03-01T07:40:52;102274.91;;;-0.98;100.00
52625;BME280;38519;52.540;13.410;2023-03-01T07:43:18;102268.44;;;-1.02;100.00
52625;BME280;38519;52.540;13.410;2023-03-01T07:45:43;102267.94;;;-0.99;100.00
52625;BME280;38519;52.540;13.410;2023-03-01T07:48:09;102270.22;;;-0.95;100.00
52625;BME280;38519;52.540;13.410;2023-03-01T07:50:34;102265.97;;;-0.89;100.00
52625;BME280;38519;52.540;13.410;2023-03-01T07:53:00;102269.97;;;-0.67;100.00
52625;BME280;38519;52.540;13.410;2023-03-01T07:55:25;102265.38;;;-0.51;100.00
52625;BME280;38519;52.540;13.410;2023-03-01T07:57:50;102271.03;;;-0.16;100.00
52625;BME280;38519;52.540;13.410;2023-03-01T08:00:15;102275.66;;;0.05;100.00
52625;BME280;38519;52.540;13.410;2023-03-01T08:02:41;102268.69;;;0.22;100.00
52625;BME280;38519;52.540;13.410;2023-03-01T08:05:07;102278.69;;;0.26;100.00
52625;BME280;38519;52.540;13.410;2023-03-01T08:07:32;102271.09;;;0.33;100.00
52625;BME280;38519;52.540;13.410;2023-03-01T08:09:58;102274.88;;;0.48;100.00
52625;BME280;38519;52.540;13.410;2023-03-01T08:12:23;102267.47;;;0.57;100.00
52625;BME280;38519;52.540;13.410;2023-03-01T08:14:48;102271.63;;;0.75;100.00
52625;BME280;38519;52.540;13.410;2023-03-01T08:17:14;102271.16;;;0.90;100.00
52625;BME280;38519;52.540;13.410;2023-03-01T08:19:40;102265.41;;;0.99;100.00
52625;BME280;38519;52.540;13.410;2023-03-01T08:22:05;102258.22;;;1.09;100.00
52625;BME280;38519;52.540;13.410;2023-03-01T08:24:31;102257.91;;;1.13;100.00
52625;BME280;38519;52.540;13.410;2023-03-01T08:26:56;102260.78;;;1.22;100.00
52625;BME280;38519;52.540;13.410;2023-03-01T08:29:21;102257.00;;;1.25;100.00
52625;BME280;38519;52.540;13.410;2023-03-01T08:31:48;102252.34;;;1.36;100.00
52625;BME280;38519;52.540;13.410;2023-03-01T08:34:14;102246.16;;;1.41;100.00
52625;BME280;38519;52.540;13.410;2023-03-01T08:36:40;102250.81;;;1.56;100.00
52625;BME280;38519;52.540;13.410;2023-03-01T08:39:06;102242.66;;;1.66;100.00
52625;BME280;38519;52.540;13.410;2023-03-01T08:41:32;102239.03;;;1.71;100.00
52625;BME280;38519;52.540;13.410;2023-03-01T08:43:58;102249.13;;;1.70;100.00
52625;BME280;38519;52.540;13.410;2023-03-01T08:46:27;102251.06;;;1.78;100.00
52625;BME280;38519;52.540;13.410;2023-03-01T08:48:52;102248.56;;;1.98;100.00
52625;BME280;38519;52.540;13.410;2023-03-01T08:51:18;102253.88;;;2.12;100.00
52625;BME280;38519;52.540;13.410;2023-03-01T08:53:45;102255.19;;;2.16;100.00
52625;BME280;38519;52.540;13.410;2023-03-01T08:56:10;102252.34;;;2.07;100.00
52625;BME280;38519;52.540;13.410;2023-03-01T08:58:36;102247.66;;;2.17;100.00
52625;BME280;38519;52.540;13.410;2023-03-01T09:01:08;102241.78;;;2.18;100.00
52625;BME280;38519;52.540;13.410;2023-03-01T09:03:34;102231.72;;;2.27;100.00
52625;BME280;38519;52.540;13.410;2023-03-01T09:06:00;102234.00;;;2.51;100.00
52625;BME280;38519;52.540;13.410;2023-03-01T09:08:25;102229.31;;;2.62;100.00
52625;BME280;38519;52.540;13.410;2023-03-01T09:10:51;102230.94;;;2.61;100.00
52625;BME280;38519;52.540;13.410;2023-03-01T09:13:16;102225.47;;;2.65;100.00
52625;BME280;38519;52.540;13.410;2023-03-01T09:15:41;102232.97;;;2.84;100.00
52625;BME280;38519;52.540;13.410;2023-03-01T09:18:06;102229.19;;;2.95;100.00
52625;BME280;38519;52.540;13.410;2023-03-01T09:20:32;102227.03;;;3.05;100.00
52625;BME280;38519;52.540;13.410;2023-03-01T09:22:57;102232.78;;;3.09;100.00
52625;BME280;38519;52.540;13.410;2023-03-01T09:25:22;102232.06;;;3.10;100.00
52625;BME280;38519;52.540;13.410;2023-03-01T09:27:52;102235.94;;;3.14;100.00
52625;BME280;38519;52.540;13.410;2023-03-01T09:30:18;102223.59;;;3.12;100.00
52625;BME280;38519;52.540;13.410;2023-03-01T09:32:43;102225.13;;;3.24;100.00
52625;BME280;38519;52.540;13.410;2023-03-01T09:35:10;102227.59;;;3.37;100.00
52625;BME280;38519;52.540;13.410;2023-03-01T09:37:35;102228.22;;;3.49;100.00
52625;BME280;38519;52.540;13.410;2023-03-01T09:40:02;102226.94;;;3.59;100.00
52625;BME280;38519;52.540;13.410;2023-03-01T09:42:29;102226.81;;;3.65;100.00
52625;BME280;38519;52.540;13.410;2023-03-01T09:45:01;102228.88;;;3.82;100.00
52625;BME280;38519;52.540;13.410;2023-03-01T09:47:29;102229.66;;;3.88;100.00
52625;BME280;38519;52.540;13.410;2023-03-01T09:52:40;102220.84;;;4.00;100.00
52625;BME280;38519;52.540;13.410;2023-03-01T09:55:17;102224.00;;;4.05;100.00
52625;BME280;38519;52.540;13.410;2023-03-01T10:02:41;102226.06;;;4.29;100.00
52625;BME280;38519;52.540;13.410;2023-03-01T10:10:23;102225.91;;;4.42;100.00
52625;BME280;38519;52.540;13.410;2023-03-01T10:12:51;102226.63;;;4.55;100.00
52625;BME280;38519;52.540;13.410;2023-03-01T10:15:18;102236.25;;;4.71;100.00
52625;BME280;38519;52.540;13.410;2023-03-01T10:17:51;102235.16;;;4.76;100.00
52625;BME280;38519;52.540;13.410;2023-03-01T10:20:25;102237.91;;;4.78;100.00
52625;BME280;38519;52.540;13.410;2023-03-01T10:22:50;102231.81;;;4.70;100.00
52625;BME280;38519;52.540;13.410;2023-03-01T10:26:06;102236.81;;;4.68;100.00
52625;BME280;38519;52.540;13.410;2023-03-01T10:28:05;102228.47;;;4.64;100.00
52625;BME280;38519;52.540;13.410;2023-03-01T10:30:35;102215.03;;;4.73;100.00
52625;BME280;38519;52.540;13.410;2023-03-01T10:33:04;102214.97;;;4.88;100.00
52625;BME280;38519;52.540;13.410;2023-03-01T10:35:32;102213.34;;;4.88;100.00
52625;BME280;38519;52.540;13.410;2023-03-01T10:38:08;102222.00;;;5.03;100.00
52625;BME280;38519;52.540;13.410;2023-03-01T10:40:34;102214.25;;;4.96;100.00
52625;BME280;38519;52.540;13.410;2023-03-01T10:43:01;102224.78;;;5.12;100.00
52625;BME280;38519;52.540;13.410;2023-03-01T10:45:37;102215.88;;;5.10;100.00
52625;BME280;38519;52.540;13.410;2023-03-01T10:50:31;102206.03;;;5.36;100.00
52625;BME280;38519;52.540;13.410;2023-03-01T10:52:58;102199.34;;;5.31;100.00
52625;BME280;38519;52.540;13.410;2023-03-01T10:57:50;102192.97;;;5.58;100.00
52625;BME280;38519;52.540;13.410;2023-03-01T11:00:30;102193.66;;;5.26;100.00
52625;BME280;38519;52.540;13.410;2023-03-01T11:05:25;102194.47;;;5.48;100.00
52625;BME280;38519;52.540;13.410;2023-03-01T11:07:52;102190.97;;;5.48;100.00
52625;BME280;38519;52.540;13.410;2023-03-01T11:10:18;102185.13;;;5.72;100.00
52625;BME280;38519;52.540;13.410;2023-03-01T11:12:44;102183.25;;;5.34;100.00
52625;BME280;38519;52.540;13.410;2023-03-01T11:15:19;102171.50;;;5.59;100.00
52625;BME280;38519;52.540;13.410;2023-03-01T11:17:45;102171.34;;;5.57;100.00
52625;BME280;38519;52.540;13.410;2023-03-01T11:20:15;102168.78;;;5.80;100.00
52625;BME280;38519;52.540;13.410;2023-03-01T11:22:50;102165.78;;;5.99;100.00
52625;BME280;38519;52.540;13.410;2023-03-01T11:25:17;102171.00;;;5.84;100.00
52625;BME280;38519;52.540;13.410;2023-03-01T11:27:44;102158.25;;;6.16;100.00
52625;BME280;38519;52.540;13.410;2023-03-01T11:33:01;102161.97;;;6.11;100.00
52625;BME280;38519;52.540;13.410;2023-03-01T11:35:28;102157.94;;;6.06;100.00
52625;BME280;38519;52.540;13.410;2023-03-01T11:40:26;102151.72;;;6.43;100.00
52625;BME280;38519;52.540;13.410;2023-03-01T11:45:41;102162.09;;;6.66;100.00
52625;BME280;38519;52.540;13.410;2023-03-01T11:53:15;102149.94;;;6.74;100.00
52625;BME280;38519;52.540;13.410;2023-03-01T12:11:10;102144.94;;;6.91;100.00
52625;BME280;38519;52.540;13.410;2023-03-01T12:21:13;102128.94;;;6.80;100.00
52625;BME280;38519;52.540;13.410;2023-03-01T12:23:57;102122.47;;;6.60;100.00
52625;BME280;38519;52.540;13.410;2023-03-01T12:44:23;102102.31;;;7.21;100.00
52625;BME280;38519;52.540;13.410;2023-03-01T12:47:39;102095.34;;;7.45;100.00
52625;BME280;38519;52.540;13.410;2023-03-01T12:49:40;102093.84;;;7.15;100.00
52625;BME280;38519;52.540;13.410;2023-03-01T12:54:37;102091.19;;;7.06;100.00
52625;BME280;38519;52.540;13.410;2023-03-01T12:57:09;102085.31;;;7.00;100.00
52625;BME280;38519;52.540;13.410;2023-03-01T12:59:48;102085.38;;;7.09;100.00
52625;BME280;38519;52.540;13.410;2023-03-01T13:02:34;102077.75;;;7.10;99.92
52625;BME280;38519;52.540;13.410;2023-03-01T13:07:37;102080.47;;;7.03;100.00
52625;BME280;38519;52.540;13.410;2023-03-01T13:17:48;102071.97;;;8.36;98.38
52625;BME280;38519;52.540;13.410;2023-03-01T13:20:18;102076.00;;;8.50;96.74
52625;BME280;38519;52.540;13.410;2023-03-01T13:22:44;102070.72;;;8.84;97.03
52625;BME280;38519;52.540;13.410;2023-03-01T13:27:38;102057.09;;;9.39;97.56
52625;BME280;38519;52.540;13.410;2023-03-01T13:30:04;102067.38;;;9.37;97.86
52625;BME280;38519;52.540;13.410;2023-03-01T13:32:34;102051.59;;;9.27;98.11
52625;BME280;38519;52.540;13.410;2023-03-01T13:37:38;102048.78;;;8.73;97.47
52625;BME280;38519;52.540;13.410;2023-03-01T13:40:56;102047.03;;;9.07;97.04
52625;BME280;38519;52.540;13.410;2023-03-01T13:42:53;102043.94;;;9.02;97.56
52625;BME280;38519;52.540;13.410;2023-03-01T13:47:44;102042.09;;;9.36;97.11
52625;BME280;38519;52.540;13.410;2023-03-01T13:50:18;102039.94;;;9.32;96.98
52625;BME280;38519;52.540;13.410;2023-03-01T13:52:48;102039.50;;;9.01;97.00
52625;BME280;38519;52.540;13.410;2023-03-01T13:57:38;102025.38;;;8.90;98.60
52625;BME280;38519;52.540;13.410;2023-03-01T14:00:05;102028.09;;;8.48;99.31
52625;BME280;38519;52.540;13.410;2023-03-01T14:02:31;102026.59;;;8.59;100.00
52625;BME280;38519;52.540;13.410;2023-03-01T14:04:57;102022.00;;;9.00;99.68
52625;BME280;38519;52.540;13.410;2023-03-01T14:07:23;102021.19;;;8.49;99.70
52625;BME280;38519;52.540;13.410;2023-03-01T14:09:52;102015.53;;;8.62;100.00
52625;BME280;38519;52.540;13.410;2023-03-01T14:20:29;102003.84;;;9.99;98.89
52625;BME280;38519;52.540;13.410;2023-03-01T14:22:59;101996.03;;;9.54;99.32
52625;BME280;38519;52.540;13.410;2023-03-01T14:25:29;101984.16;;;8.69;100.00